Time;durP1;ratioP1;P1;durP2;ratioP2;P2;SDS_P1;SDS_P2;PMS_P1;PMS_P2;Temp;Humidity;BMP_temperature;BMP_pressure;BME280_temperature;BME280_humidity;BME280_pressure;Samples;Min_cycle;Max_cycle;Signal;HPM_P1;HPM_P2
2021/07/22 00:00:28;;;;;;;24.82;7.20;;;;;;;17.02;66.11;99428.54;2135373;82;21563;-64
2021/07/22 00:03:32;;;;;;;;;;;;;;;16.97;66.37;99427.58;2127556;83;21009;-64
2021/07/22 00:06:32;;;;;;;21.82;7.12;;;;;;;16.85;66.92;99426.70;2135380;83;20111;-64
2021/07/22 00:09:33;;;;;;;21.07;7.10;;;;;;;16.75;67.11;99433.65;2135367;82;21049;-64
2021/07/22 00:12:33;;;;;;;21.05;6.58;;;;;;;16.72;67.14;99436.54;2135303;82;21499;-64
2021/07/22 00:15:34;;;;;;;19.82;7.08;;;;;;;16.78;67.03;99437.41;2135274;82;20992;-64
2021/07/22 00:18:34;;;;;;;20.08;7.30;;;;;;;16.83;67.02;99436.56;2135136;83;21112;-64
2021/07/22 00:21:34;;;;;;;20.92;7.40;;;;;;;16.83;67.11;99432.59;2135623;82;20989;-64
2021/07/22 00:24:36;;;;;;;21.55;7.35;;;;;;;16.72;67.41;99441.38;2135016;82;21008;-65
2021/07/22 00:27:37;;;;;;;21.75;7.75;;;;;;;16.66;67.32;99435.70;2135414;83;21016;-64
2021/07/22 00:30:37;;;;;;;25.25;7.20;;;;;;;16.65;67.37;99444.59;2135370;82;21559;-64
2021/07/22 00:33:37;;;;;;;24.05;7.78;;;;;;;16.65;67.53;99438.84;2135376;82;20977;-64
2021/07/22 00:36:38;;;;;;;22.15;7.75;;;;;;;16.69;67.44;99444.23;2135369;83;21043;-64
2021/07/22 00:39:38;;;;;;;21.25;7.22;;;;;;;16.75;67.30;99437.63;2135191;82;21048;-64
2021/07/22 00:42:39;;;;;;;23.35;8.45;;;;;;;16.77;67.24;99433.91;2135440;83;21060;-64
2021/07/22 00:45:39;;;;;;;23.40;8.40;;;;;;;16.77;67.19;99433.07;2135175;82;21024;-64
2021/07/22 00:48:40;;;;;;;24.12;8.33;;;;;;;16.78;67.18;99430.30;2135330;82;21053;-64
2021/07/22 00:51:40;;;;;;;24.23;8.15;;;;;;;16.74;67.24;99431.98;2135249;82;21562;-64
2021/07/22 00:54:41;;;;;;;25.40;8.08;;;;;;;16.72;67.30;99431.24;2135181;83;21587;-64
2021/07/22 00:57:41;;;;;;;24.25;8.90;;;;;;;16.72;67.47;99432.57;2135316;82;21000;-64
2021/07/22 01:00:42;;;;;;;22.42;8.45;;;;;;;16.73;67.47;99421.85;2139348;82;21009;-65
2021/07/22 01:03:44;;;;;;;21.68;7.70;;;;;;;16.74;67.50;99429.34;2151389;82;21048;-64
2021/07/22 01:06:44;;;;;;;22.60;7.80;;;;;;;16.75;67.55;99429.22;2151342;82;21491;-65
2021/07/22 01:09:45;;;;;;;23.57;8.28;;;;;;;16.73;67.38;99428.97;2151201;82;21103;-64
2021/07/22 01:12:45;;;;;;;23.65;7.90;;;;;;;16.72;67.50;99429.92;2151362;82;21028;-64
2021/07/22 01:15:45;;;;;;;23.27;8.48;;;;;;;16.73;67.38;99433.77;2151236;83;21048;-64
2021/07/22 01:18:46;;;;;;;23.02;7.70;;;;;;;16.71;67.41;99431.73;2151327;82;20991;-64
2021/07/22 01:21:46;;;;;;;22.15;7.62;;;;;;;16.67;67.55;99430.77;2151227;82;21523;-64
2021/07/22 01:24:47;;;;;;;21.73;7.75;;;;;;;16.58;67.80;99425.21;2151235;82;21012;-64
2021/07/22 01:27:47;;;;;;;23.67;7.72;;;;;;;16.54;68.04;99421.59;2151166;82;21135;-64
2021/07/22 01:30:48;;;;;;;22.85;8.45;;;;;;;16.51;68.24;99426.64;2151310;83;20985;-64
2021/07/22 01:33:48;;;;;;;22.20;8.50;;;;;;;16.46;68.47;99424.81;2151576;82;20968;-64
2021/07/22 01:36:48;;;;;;;22.25;8.15;;;;;;;16.43;68.33;99426.38;2151335;82;20960;-64
2021/07/22 01:39:49;;;;;;;23.30;8.23;;;;;;;16.47;68.49;99420.38;2150832;82;21057;-64
2021/07/22 01:42:49;;;;;;;26.80;8.90;;;;;;;16.48;68.52;99420.27;2151261;82;21557;-64
2021/07/22 01:45:50;;;;;;;25.02;8.18;;;;;;;16.45;68.67;99420.01;2151144;83;21064;-65
2021/07/22 01:48:50;;;;;;;21.87;7.58;;;;;;;16.43;68.63;99421.08;2151164;82;21011;-65
2021/07/22 01:51:51;;;;;;;21.80;7.45;;;;;;;16.43;68.94;99423.27;2151396;83;21028;-64
2021/07/22 01:54:51;;;;;;;26.05;7.92;;;;;;;16.43;68.85;99413.13;2151380;82;21000;-64
2021/07/22 01:57:54;;;;;;;22.15;8.25;;;;;;;16.49;68.92;99413.98;2151154;82;21037;-64
2021/07/22 02:00:54;;;;;;;;;;;;;;;16.53;68.72;99420.73;2081116;84;21031;-64
2021/07/22 02:03:54;;;;;;;27.50;8.40;;;;;;;16.53;68.85;99411.95;2076087;86;20121;-64
2021/07/22 02:06:55;;;;;;;24.18;8.38;;;;;;;16.48;68.53;99408.80;2075913;85;21072;-64
2021/07/22 02:09:55;;;;;;;24.55;8.58;;;;;;;16.48;68.79;99418.94;2076006;86;21057;-64
2021/07/22 02:12:55;;;;;;;24.43;8.30;;;;;;;16.45;68.61;99409.91;2076164;86;21041;-64
2021/07/22 02:15:56;;;;;;;21.23;7.72;;;;;;;16.43;68.81;99415.32;2076326;85;21094;-64
2021/07/22 02:18:56;;;;;;;21.62;8.10;;;;;;;16.47;68.86;99411.94;2076119;86;20997;-64
2021/07/22 02:21:57;;;;;;;21.85;8.68;;;;;;;16.47;68.69;99418.56;2076022;86;21512;-64
2021/07/22 02:24:57;;;;;;;25.92;9.00;;;;;;;16.46;68.81;99407.60;2076173;86;21533;-64
2021/07/22 02:27:58;;;;;;;25.85;8.90;;;;;;;16.43;68.94;99415.78;2076062;86;21030;-64
2021/07/22 02:30:58;;;;;;;23.18;8.53;;;;;;;16.34;68.88;99416.00;2091502;85;21067;-64
2021/07/22 02:33:59;;;;;;;25.65;8.85;;;;;;;16.25;69.24;99420.68;2091931;85;21103;-64
2021/07/22 02:36:59;;;;;;;22.70;7.92;;;;;;;16.15;69.66;99415.23;2091985;85;21096;-64
2021/07/22 02:39:59;;;;;;;24.50;8.73;;;;;;;16.08;69.75;99414.83;2091776;85;21000;-64
2021/07/22 02:43:00;;;;;;;22.50;8.10;;;;;;;16.13;69.87;99424.23;2091871;85;21538;-64
2021/07/22 02:46:00;;;;;;;23.60;8.38;;;;;;;16.18;69.84;99422.09;2091752;85;21013;-64
2021/07/22 02:49:01;;;;;;;22.62;8.55;;;;;;;16.24;69.66;99424.28;2091423;85;21044;-64
2021/07/22 02:52:02;;;;;;;23.12;8.38;;;;;;;16.28;69.52;99420.45;2091999;85;21004;-64
2021/07/22 02:55:02;;;;;;;24.10;8.70;;;;;;;16.32;69.59;99419.26;2092013;85;20969;-64
2021/07/22 02:58:02;;;;;;;25.62;8.70;;;;;;;16.26;69.71;99419.23;2091693;85;21059;-65
2021/07/22 03:01:03;;;;;;;21.50;8.33;;;;;;;16.19;70.09;99423.77;2091715;85;21586;-64
2021/07/22 03:04:03;;;;;;;22.87;8.35;;;;;;;16.10;70.30;99425.30;2092039;85;21563;-64
2021/07/22 03:07:04;;;;;;;21.97;9.08;;;;;;;16.09;70.42;99423.59;2091824;85;21017;-64
2021/07/22 03:10:04;;;;;;;27.02;9.25;;;;;;;16.18;70.39;99426.07;2091765;85;21009;-64
2021/07/22 03:13:05;;;;;;;24.23;9.43;;;;;;;16.23;70.34;99425.23;2092013;85;21052;-64
2021/07/22 03:16:06;;;;;;;28.38;9.90;;;;;;;16.31;70.31;99425.99;2091785;85;20985;-64
2021/07/22 03:19:06;;;;;;;24.67;9.23;;;;;;;16.31;70.25;99429.97;2092118;85;21001;-64
2021/07/22 03:22:07;;;;;;;25.37;9.40;;;;;;;16.28;70.11;99428.38;2091754;85;21056;-64
2021/07/22 03:25:07;;;;;;;24.20;9.05;;;;;;;16.34;70.15;99434.53;2091749;85;20996;-64
2021/07/22 03:28:08;;;;;;;25.52;9.13;;;;;;;16.34;70.19;99436.34;2091781;85;21056;-64
2021/07/22 03:31:08;;;;;;;23.52;9.13;;;;;;;16.33;70.55;99435.48;2091727;85;21119;-64
2021/07/22 03:34:09;;;;;;;25.70;9.58;;;;;;;16.27;70.74;99430.17;2091880;85;20989;-64
2021/07/22 03:37:10;;;;;;;25.23;10.23;;;;;;;16.23;70.63;99434.48;2091845;85;21528;-64
2021/07/22 03:40:10;;;;;;;21.68;8.68;;;;;;;16.22;70.56;99436.30;2091861;85;21522;-64
2021/07/22 03:43:11;;;;;;;23.18;8.78;;;;;;;16.21;71.30;99439.06;2091748;85;21048;-64
2021/07/22 03:46:11;;;;;;;24.37;8.90;;;;;;;16.13;71.49;99440.94;2091953;85;20985;-64
2021/07/22 03:49:12;;;;;;;24.80;8.83;;;;;;;16.07;71.82;99442.23;2091918;85;20965;-65
2021/07/22 03:52:12;;;;;;;25.43;9.33;;;;;;;16.05;72.36;99440.20;2091857;85;21064;-64
2021/07/22 03:55:12;;;;;;;25.52;9.45;;;;;;;16.07;72.77;99440.91;2091861;85;21547;-64
2021/07/22 03:58:13;;;;;;;22.45;8.78;;;;;;;16.04;72.31;99439.83;2091759;85;21578;-64
2021/07/22 04:01:13;;;;;;;25.92;9.60;;;;;;;16.07;72.25;99438.77;2093117;85;21128;-64
2021/07/22 04:04:14;;;;;;;22.17;8.35;;;;;;;16.09;72.12;99436.37;2099004;85;21039;-64
2021/07/22 04:07:14;;;;;;;26.65;9.00;;;;;;;16.13;72.44;99444.08;2098844;85;21072;-64
2021/07/22 04:10:14;;;;;;;25.27;9.40;;;;;;;16.16;72.17;99439.42;2098998;85;20984;-64
2021/07/22 04:13:15;;;;;;;23.05;9.08;;;;;;;16.18;72.45;99441.45;2098770;85;21001;-64
2021/07/22 04:16:15;;;;;;;24.23;9.75;;;;;;;16.22;72.31;99438.09;2098769;85;21527;-64
2021/07/22 04:19:16;;;;;;;21.95;8.60;;;;;;;16.23;72.30;99435.36;2098689;85;21060;-64
2021/07/22 04:22:16;;;;;;;22.73;9.15;;;;;;;16.27;72.61;99436.78;2098648;85;20988;-64
2021/07/22 04:25:17;;;;;;;22.13;8.75;;;;;;;16.27;72.58;99438.11;2098444;85;21054;-64
2021/07/22 04:28:17;;;;;;;23.07;9.10;;;;;;;16.28;72.54;99440.30;2098671;85;21044;-64
2021/07/22 04:31:17;;;;;;;25.10;9.18;;;;;;;16.39;72.56;99440.34;2098758;85;20984;-64
2021/07/22 04:34:18;;;;;;;24.30;9.48;;;;;;;16.47;72.26;99437.09;2098757;85;21270;-64
2021/07/22 04:37:18;;;;;;;22.35;8.88;;;;;;;16.57;72.19;99428.81;2098771;85;21015;-64
2021/07/22 04:40:19;;;;;;;23.70;8.90;;;;;;;16.66;71.97;99430.40;2098786;85;21494;-64
2021/07/22 04:43:20;;;;;;;22.22;9.05;;;;;;;16.77;72.21;99434.39;2098308;85;21603;-64
2021/07/22 04:46:20;;;;;;;21.95;9.20;;;;;;;16.91;71.37;99431.55;2098796;85;21001;-64
2021/07/22 04:49:21;;;;;;;24.92;9.00;;;;;;;17.04;71.38;99431.90;2098825;85;21019;-64
2021/07/22 04:52:22;;;;;;;23.67;9.77;;;;;;;17.13;70.99;99430.70;2098868;85;21115;-64
2021/07/22 04:55:22;;;;;;;25.85;9.53;;;;;;;17.20;71.12;99435.05;2098719;85;21008;-64
2021/07/22 04:58:23;;;;;;;26.57;9.75;;;;;;;17.28;71.00;99435.30;2098666;85;21024;-64
2021/07/22 05:01:23;;;;;;;26.70;9.63;;;;;;;17.43;70.55;99430.56;2099075;85;21028;-64
2021/07/22 05:04:24;;;;;;;23.42;9.60;;;;;;;17.52;70.57;99430.80;2071650;86;21094;-64
2021/07/22 05:07:24;;;;;;;26.30;9.08;;;;;;;17.66;70.55;99432.69;2086252;85;21092;-64
2021/07/22 05:10:24;;;;;;;29.40;9.25;;;;;;;17.84;70.20;99434.34;2086217;85;21032;-64
2021/07/22 05:13:25;;;;;;;22.80;9.25;;;;;;;18.08;69.22;99430.66;2086164;85;21467;-64
2021/07/22 05:16:25;;;;;;;25.92;10.13;;;;;;;18.28;68.75;99429.00;2086199;85;21005;-64
2021/07/22 05:19:26;;;;;;;24.75;9.23;;;;;;;18.49;68.23;99437.48;2085959;85;21068;-65
2021/07/22 05:22:26;;;;;;;24.57;9.95;;;;;;;18.61;68.92;99435.59;2086214;85;21037;-64
2021/07/22 05:25:26;;;;;;;22.13;8.10;;;;;;;18.89;68.42;99446.05;2086308;85;21032;-64
2021/07/22 05:28:27;;;;;;;24.10;8.75;;;;;;;19.14;67.40;99447.44;2085787;85;21040;-64
2021/07/22 05:31:28;;;;;;;24.50;8.68;;;;;;;19.24;67.30;99447.48;2086125;85;21603;-64
2021/07/22 05:34:28;;;;;;;23.20;8.78;;;;;;;19.59;66.43;99444.02;2086072;85;21523;-64
2021/07/22 05:37:31;;;;;;;23.95;8.65;;;;;;;19.80;66.01;99454.61;2086031;85;20996;-64
2021/07/22 05:40:31;;;;;;;22.37;8.80;;;;;;;19.90;64.83;99448.81;2086158;85;21104;-64
2021/07/22 05:43:32;;;;;;;22.30;9.13;;;;;;;20.05;63.99;99444.73;2086401;85;21539;-64
2021/07/22 05:46:32;;;;;;;21.35;8.28;;;;;;;20.04;64.02;99447.54;2086344;85;21048;-64
2021/07/22 05:49:33;;;;;;;25.45;9.40;;;;;;;20.10;64.47;99441.68;2086289;85;21049;-64
2021/07/22 05:52:34;;;;;;;23.50;9.20;;;;;;;20.06;64.52;99444.27;2086035;85;21052;-64
2021/07/22 05:55:34;;;;;;;23.38;8.98;;;;;;;19.96;63.86;99452.74;2086288;85;21001;-64
2021/07/22 05:58:34;;;;;;;23.85;8.53;;;;;;;20.03;62.89;99456.03;2086028;85;21005;-64
2021/07/22 06:01:35;;;;;;;22.73;8.78;;;;;;;20.06;63.67;99452.25;2084800;85;21034;-65
2021/07/22 06:04:35;;;;;;;22.45;8.45;;;;;;;20.06;64.28;99451.75;2076223;85;21481;-65
2021/07/22 06:07:36;;;;;;;22.82;8.60;;;;;;;20.02;63.01;99453.51;2076133;85;21129;-65
2021/07/22 06:10:36;;;;;;;22.85;8.48;;;;;;;20.02;62.86;99452.17;2076051;86;21041;-65
2021/07/22 06:13:36;;;;;;;22.67;8.38;;;;;;;20.01;63.07;99457.14;2076182;85;21045;-64
2021/07/22 06:16:37;;;;;;;22.75;8.28;;;;;;;20.11;63.05;99458.48;2075947;85;21036;-64
2021/07/22 06:19:37;;;;;;;21.75;8.33;;;;;;;20.21;63.43;99454.00;2076190;85;21068;-64
2021/07/22 06:22:38;;;;;;;25.20;8.68;;;;;;;20.29;62.56;99451.98;2076045;86;21527;-64
2021/07/22 06:25:39;;;;;;;22.90;8.33;;;;;;;20.41;61.62;99450.84;2075986;86;21135;-64
2021/07/22 06:28:40;;;;;;;22.30;8.18;;;;;;;20.38;61.56;99456.45;2076093;85;21056;-64
2021/07/22 06:31:40;;;;;;;21.80;8.20;;;;;;;20.46;62.01;99458.39;2076227;85;21017;-64
2021/07/22 06:34:40;;;;;;;21.62;8.03;;;;;;;20.52;61.71;99454.69;2076375;86;21028;-64
2021/07/22 06:37:42;;;;;;;21.15;8.53;;;;;;;20.72;61.90;99460.86;2076317;86;21048;-64
2021/07/22 06:40:43;;;;;;;;;;;;;;;20.65;61.00;99454.38;2078858;86;21048;-64
2021/07/22 06:43:43;;;;;;;22.00;8.63;;;;;;;20.70;62.26;99452.17;2075951;85;20214;-65
2021/07/22 06:46:44;;;;;;;23.25;8.70;;;;;;;21.06;61.90;99461.69;2076353;85;21520;-65
2021/07/22 06:49:45;;;;;;;23.95;8.50;;;;;;;21.30;60.99;99448.31;2076296;85;21013;-64
2021/07/22 06:52:46;;;;;;;22.65;8.05;;;;;;;21.66;60.98;99445.77;2076146;85;21045;-64
2021/07/22 06:55:48;;;;;;;24.02;8.13;;;;;;;22.00;59.55;99443.79;2076500;86;20989;-64
2021/07/22 06:58:48;;;;;;;22.02;7.55;;;;;;;21.87;59.35;99440.66;2076109;85;21312;-64
2021/07/22 07:01:49;;;;;;;22.70;7.83;;;;;;;21.89;59.69;99437.33;2076350;85;21076;-64
2021/07/22 07:04:49;;;;;;;21.97;8.30;;;;;;;22.38;58.76;99446.31;2076442;85;21049;-64
2021/07/22 07:07:50;;;;;;;21.73;8.53;;;;;;;22.37;59.17;99445.97;2076199;85;20981;-65
2021/07/22 07:10:50;;;;;;;22.27;8.83;;;;;;;22.54;59.09;99447.80;2076297;85;21547;-64
2021/07/22 07:13:51;;;;;;;21.50;8.23;;;;;;;22.70;58.19;99444.40;2076273;85;20993;-64
2021/07/22 07:16:51;;;;;;;19.27;7.40;;;;;;;22.71;58.24;99450.06;2076221;85;21069;-65
2021/07/22 07:19:51;;;;;;;20.50;7.40;;;;;;;22.84;58.32;99448.31;2076395;85;21001;-65
2021/07/22 07:22:53;;;;;;;22.67;7.70;;;;;;;22.75;56.72;99447.42;2076365;85;21060;-64
2021/07/22 07:25:54;;;;;;;;;;;;;;;22.90;58.21;99445.03;2078564;85;21060;-64
2021/07/22 07:28:54;;;;;;;21.33;8.18;;;;;;;23.08;56.44;99447.62;2075680;85;20153;-64
2021/07/22 07:31:55;;;;;;;22.57;8.17;;;;;;;22.97;56.85;99445.21;2076583;85;21045;-64
2021/07/22 07:34:55;;;;;;;21.03;7.03;;;;;;;23.31;57.25;99436.39;2076412;85;21032;-64
2021/07/22 07:37:56;;;;;;;20.27;6.80;;;;;;;23.87;55.29;99440.27;2076340;85;21100;-64
2021/07/22 07:40:56;;;;;;;20.27;6.97;;;;;;;23.91;54.18;99439.45;2076413;85;21465;-66
2021/07/22 07:43:57;;;;;;;20.63;6.27;;;;;;;23.57;54.54;99435.48;2076522;85;21562;-66
2021/07/22 07:46:57;;;;;;;20.70;6.23;;;;;;;23.47;55.60;99438.29;2076365;85;21006;-65
2021/07/22 07:49:58;;;;;;;17.93;5.70;;;;;;;23.44;54.98;99438.62;2076407;85;21081;-64
2021/07/22 07:52:59;;;;;;;21.30;6.08;;;;;;;23.42;53.76;99433.91;2076291;85;21024;-64
2021/07/22 07:55:59;;;;;;;17.93;6.03;;;;;;;23.41;54.49;99433.59;2076518;85;21097;-64
2021/07/22 07:59:00;;;;;;;18.73;5.97;;;;;;;23.28;55.16;99437.55;2076393;85;21507;-64
2021/07/22 08:02:00;;;;;;;18.33;5.63;;;;;;;23.04;54.66;99439.56;2076781;85;20954;-65
2021/07/22 08:05:01;;;;;;;15.87;4.77;;;;;;;23.10;54.24;99436.75;2082521;86;21056;-65
2021/07/22 08:08:01;;;;;;;17.40;5.00;;;;;;;23.09;52.59;99438.61;2082924;85;21077;-65
2021/07/22 08:11:01;;;;;;;23.33;5.60;;;;;;;22.97;53.03;99436.71;2082848;85;20996;-65
2021/07/22 08:14:02;;;;;;;18.60;5.70;;;;;;;23.20;54.04;99433.48;2092279;85;20984;-65
2021/07/22 08:17:02;;;;;;;20.33;5.33;;;;;;;23.31;53.97;99429.70;2092140;85;21483;-65
2021/07/22 08:20:05;;;;;;;17.57;5.10;;;;;;;23.08;53.66;99429.41;2092152;85;21049;-65
2021/07/22 08:23:05;;;;;;;18.27;5.35;;;;;;;22.83;53.01;99430.61;2065090;85;21001;-64
2021/07/22 08:26:06;;;;;;;17.77;5.07;;;;;;;22.80;53.87;99430.90;2092234;85;21599;-65
2021/07/22 08:29:06;;;;;;;17.10;4.93;;;;;;;23.05;52.56;99421.70;2092024;85;21013;-64
2021/07/22 08:32:07;;;;;;;17.33;4.93;;;;;;;23.13;51.91;99423.95;2091957;85;21148;-64
2021/07/22 08:35:07;;;;;;;20.20;5.03;;;;;;;23.11;53.29;99429.11;2092366;85;21000;-65
2021/07/22 08:38:07;;;;;;;17.77;5.13;;;;;;;23.08;53.07;99423.55;2092212;85;21096;-65
2021/07/22 08:41:08;;;;;;;17.57;5.07;;;;;;;23.05;52.66;99433.23;2092257;85;21020;-64
2021/07/22 08:44:08;;;;;;;18.83;5.23;;;;;;;22.85;52.93;99435.29;2092248;85;21598;-65
2021/07/22 08:47:09;;;;;;;16.57;5.10;;;;;;;22.67;52.75;99430.02;2092251;85;21040;-65
2021/07/22 08:50:09;;;;;;;16.80;5.00;;;;;;;22.54;54.00;99429.56;2092107;85;21044;-65
2021/07/22 08:53:10;;;;;;;22.50;5.33;;;;;;;22.40;53.65;99435.83;2092216;85;21052;-65
2021/07/22 08:56:10;;;;;;;17.73;5.40;;;;;;;22.25;53.79;99434.66;2092221;85;20981;-65
2021/07/22 08:59:10;;;;;;;18.30;5.30;;;;;;;22.15;54.52;99428.91;2092136;85;21119;-65
2021/07/22 09:02:11;;;;;;;16.32;5.22;;;;;;;22.11;54.19;99430.69;2092031;85;20978;-65
2021/07/22 09:05:12;;;;;;;16.50;5.23;;;;;;;22.08;54.85;99435.00;2092555;85;21563;-64
2021/07/22 09:08:13;;;;;;;18.10;5.58;;;;;;;21.97;54.51;99428.90;2092373;85;21025;-64
2021/07/22 09:11:14;;;;;;;17.30;4.90;;;;;;;21.88;55.15;99431.64;2092655;85;20973;-65
2021/07/22 09:14:14;;;;;;;16.27;5.33;;;;;;;21.67;55.16;99424.77;2092432;85;21100;-64
2021/07/22 09:17:15;;;;;;;17.37;5.37;;;;;;;21.47;56.11;99434.68;2092519;85;21483;-65
2021/07/22 09:20:15;;;;;;;20.35;5.92;;;;;;;21.30;57.08;99437.64;2092409;85;21589;-65
2021/07/22 09:23:15;;;;;;;20.13;5.73;;;;;;;21.21;57.40;99434.03;2092490;85;21009;-65
2021/07/22 09:26:16;;;;;;;18.20;5.80;;;;;;;21.23;57.27;99441.89;2092121;85;21064;-64
2021/07/22 09:29:16;;;;;;;17.00;5.40;;;;;;;21.25;57.26;99434.09;2092406;85;21064;-65
2021/07/22 09:32:17;;;;;;;16.45;4.95;;;;;;;21.23;57.43;99437.41;2092628;85;20993;-64
2021/07/22 09:35:17;;;;;;;18.92;5.80;;;;;;;21.21;57.70;99438.03;2092652;85;21057;-64
2021/07/22 09:38:18;;;;;;;17.85;5.62;;;;;;;21.20;57.61;99443.02;2092240;85;21032;-64
2021/07/22 09:41:19;;;;;;;18.20;5.47;;;;;;;21.19;57.75;99442.69;2092146;85;21136;-65
2021/07/22 09:44:19;;;;;;;17.23;5.77;;;;;;;21.17;58.18;99441.98;2092364;85;21571;-64
2021/07/22 09:47:20;;;;;;;20.00;5.97;;;;;;;21.16;59.07;99435.46;2092452;85;21100;-64
2021/07/22 09:50:20;;;;;;;20.80;5.33;;;;;;;21.13;57.95;99438.42;2092244;85;21028;-65
2021/07/22 09:53:22;;;;;;;18.00;5.33;;;;;;;21.08;58.59;99437.03;2092482;85;21064;-65
2021/07/22 09:56:23;;;;;;;;;;;;;;;21.10;58.17;99436.88;2094607;85;21004;-64
2021/07/22 09:59:24;;;;;;;19.30;5.78;;;;;;;21.14;58.12;99433.45;2092136;85;20103;-64
2021/07/22 10:02:25;;;;;;;21.05;5.78;;;;;;;21.20;58.30;99438.19;2092172;85;20973;-65
2021/07/22 10:05:25;;;;;;;19.15;5.78;;;;;;;;;;2092478;85;21071;-64
2021/07/22 10:08:27;;;;;;;19.65;5.95;;;;;;;21.46;58.17;99438.33;2144463;83;21028;-64
2021/07/22 10:11:27;;;;;;;23.00;5.30;;;;;;;21.56;58.31;99435.14;2145117;83;20980;-65
2021/07/22 10:14:27;;;;;;;17.90;5.33;;;;;;;21.67;57.05;99428.77;2145072;83;20988;-64
2021/07/22 10:17:28;;;;;;;18.87;5.63;;;;;;;21.72;57.04;99430.98;2144931;83;21814;-64
2021/07/22 10:20:28;;;;;;;17.90;5.85;;;;;;;21.76;56.58;99425.69;2144758;83;21558;-65
2021/07/22 10:23:29;;;;;;;18.27;5.97;;;;;;;21.79;56.79;99426.23;2144969;83;21071;-65
2021/07/22 10:26:29;;;;;;;16.67;5.62;;;;;;;21.84;57.15;99428.45;2145005;83;21004;-65
2021/07/22 10:29:30;;;;;;;18.48;5.62;;;;;;;21.90;56.74;99430.50;2145161;83;20937;-65
2021/07/22 10:32:31;;;;;;;18.55;6.28;;;;;;;21.96;56.73;99423.20;2144484;83;21543;-65
2021/07/22 10:35:32;;;;;;;21.97;5.95;;;;;;;22.02;56.21;99427.61;2144957;83;20988;-65
2021/07/22 10:38:32;;;;;;;19.37;6.15;;;;;;;22.05;56.25;99427.30;2145146;83;20972;-65
2021/07/22 10:41:34;;;;;;;17.45;5.47;;;;;;;22.07;56.38;99432.01;2144718;83;21020;-65
2021/07/22 10:44:34;;;;;;;19.07;5.90;;;;;;;22.11;56.54;99428.02;2144922;83;21052;-65
2021/07/22 10:47:35;;;;;;;23.07;6.37;;;;;;;22.19;56.29;99431.27;2101576;85;21007;-65
2021/07/22 10:50:35;;;;;;;17.15;5.47;;;;;;;22.22;55.99;99424.28;2101555;85;20995;-65
2021/07/22 10:53:36;;;;;;;16.97;6.15;;;;;;;22.23;56.02;99421.96;2101660;85;20968;-64
2021/07/22 10:56:36;;;;;;;19.93;5.83;;;;;;;22.29;55.54;99430.18;2101602;85;21026;-65
2021/07/22 10:59:37;;;;;;;20.33;5.90;;;;;;;22.44;55.96;99422.49;2101725;85;21019;-64
2021/07/22 11:02:37;;;;;;;18.37;5.92;;;;;;;22.58;56.32;99426.42;2101302;85;21019;-65
2021/07/22 11:05:37;;;;;;;22.85;6.15;;;;;;;22.67;55.20;99421.99;2092441;85;21089;-64
2021/07/22 11:08:38;;;;;;;17.77;5.93;;;;;;;22.76;55.29;99425.05;2091931;85;21571;-64
2021/07/22 11:11:39;;;;;;;19.62;6.97;;;;;;;22.93;54.97;99422.45;2092289;85;21630;-65
2021/07/22 11:14:39;;;;;;;20.10;5.70;;;;;;;22.96;54.52;99428.34;2092314;85;20996;-65
2021/07/22 11:17:40;;;;;;;20.73;6.37;;;;;;;22.95;54.67;99423.98;2092029;85;21103;-65
2021/07/22 11:20:40;;;;;;;18.13;6.20;;;;;;;22.79;53.80;99425.23;2092490;85;20988;-65
2021/07/22 11:23:41;;;;;;;17.87;5.37;;;;;;;22.65;53.60;99419.95;2092642;85;21020;-65
2021/07/22 11:26:41;;;;;;;18.73;5.40;;;;;;;22.74;55.01;99419.51;2092489;85;20960;-65
2021/07/22 11:29:42;;;;;;;15.80;5.33;;;;;;;22.70;52.72;99419.48;2092436;85;21459;-65
2021/07/22 11:32:42;;;;;;;17.20;5.47;;;;;;;22.69;53.28;99415.98;2092101;85;21543;-65
2021/07/22 11:35:43;;;;;;;19.43;5.53;;;;;;;22.73;53.76;99420.50;2092392;85;21039;-66
2021/07/22 11:38:43;;;;;;;21.10;5.87;;;;;;;22.93;53.44;99410.41;2092272;85;20984;-65
2021/07/22 11:41:44;;;;;;;20.03;5.60;;;;;;;23.09;52.62;99401.16;2092412;85;20964;-65
2021/07/22 11:44:44;;;;;;;20.80;6.10;;;;;;;23.17;51.53;99397.69;2092113;85;21059;-65
2021/07/22 11:47:45;;;;;;;18.17;6.17;;;;;;;23.28;52.80;99400.59;2092478;85;20964;-65
2021/07/22 11:50:45;;;;;;;18.77;5.87;;;;;;;23.47;50.70;99388.77;2092320;85;21088;-65
2021/07/22 11:53:45;;;;;;;19.97;5.80;;;;;;;23.37;51.61;99384.89;2092445;85;21459;-65
2021/07/22 11:56:47;;;;;;;18.63;5.20;;;;;;;23.38;52.54;99389.76;2092413;85;21542;-65
2021/07/22 11:59:48;;;;;;;20.10;6.03;;;;;;;23.55;51.38;99387.94;2092324;85;20991;-65
2021/07/22 12:02:48;;;;;;;19.20;5.77;;;;;;;23.65;51.27;99389.48;2092405;85;21039;-65
2021/07/22 12:05:49;;;;;;;19.00;5.97;;;;;;;23.62;51.21;99384.47;2101434;85;21107;-65
2021/07/22 12:08:49;;;;;;;18.43;6.10;;;;;;;23.57;51.67;99393.98;2101463;85;21530;-65
2021/07/22 12:11:50;;;;;;;18.07;6.30;;;;;;;23.38;51.26;99385.75;2101341;85;21581;-65
2021/07/22 12:14:50;;;;;;;19.30;6.30;;;;;;;23.21;50.43;99384.84;2101509;85;21032;-65
2021/07/22 12:17:50;;;;;;;19.53;6.30;;;;;;;23.10;50.68;99390.80;2101430;85;21015;-64
2021/07/22 12:20:51;;;;;;;22.07;6.57;;;;;;;22.99;51.59;99379.87;2101572;85;21020;-65
2021/07/22 12:23:51;;;;;;;19.30;6.43;;;;;;;22.94;51.76;99377.33;2101893;85;20980;-65
2021/07/22 12:26:52;;;;;;;19.53;6.40;;;;;;;22.86;51.28;99375.95;2101599;85;21071;-65
2021/07/22 12:29:52;;;;;;;19.90;6.97;;;;;;;22.89;52.21;99368.97;2101777;85;21545;-65
2021/07/22 12:32:53;;;;;;;19.10;6.40;;;;;;;23.03;52.56;99367.50;2101605;85;21543;-65
2021/07/22 12:35:53;;;;;;;19.47;6.63;;;;;;;23.06;51.52;99369.37;2101300;85;21031;-65
2021/07/22 12:38:54;;;;;;;19.63;6.53;;;;;;;23.10;52.08;99361.37;2101746;85;21074;-65
2021/07/22 12:41:54;;;;;;;17.87;6.23;;;;;;;23.09;51.75;99366.88;2101990;85;21030;-65
2021/07/22 12:44:55;;;;;;;17.90;6.23;;;;;;;23.08;50.92;99366.53;2101775;85;20988;-65
2021/07/22 12:47:55;;;;;;;22.97;7.10;;;;;;;23.04;50.90;99367.86;2101583;85;21055;-65
2021/07/22 12:50:56;;;;;;;22.23;6.63;;;;;;;23.10;51.61;99370.73;2101449;85;21039;-65
2021/07/22 12:53:57;;;;;;;19.63;6.93;;;;;;;23.18;51.10;99369.44;2101773;85;20956;-65
2021/07/22 12:56:57;;;;;;;19.17;6.33;;;;;;;23.32;51.91;99362.63;2101623;85;21060;-66
2021/07/22 12:59:57;;;;;;;24.70;6.37;;;;;;;23.51;50.83;99364.69;2101999;85;20999;-66
2021/07/22 13:02:58;;;;;;;19.00;5.87;;;;;;;23.56;49.93;99366.39;2101870;85;20995;-65
2021/07/22 13:05:58;;;;;;;19.43;6.27;;;;;;;23.61;49.89;99361.88;2092405;85;21075;-65
2021/07/22 13:08:59;;;;;;;18.13;6.20;;;;;;;23.65;49.75;99358.69;2092416;85;21051;-65
2021/07/22 13:11:59;;;;;;;18.17;6.40;;;;;;;23.75;49.35;99354.53;2092535;85;21555;-65
2021/07/22 13:15:00;;;;;;;20.93;6.07;;;;;;;23.80;49.36;99359.38;2092101;85;21498;-65
2021/07/22 13:18:00;;;;;;;17.00;5.80;;;;;;;23.90;48.69;99352.56;2092389;85;20988;-65
2021/07/22 13:21:01;;;;;;;17.63;6.00;;;;;;;24.01;48.15;99354.91;2092527;85;21063;-65
2021/07/22 13:24:01;;;;;;;18.83;6.30;;;;;;;24.04;47.75;99351.38;2092526;85;20956;-65
2021/07/22 13:27:01;;;;;;;23.20;6.07;;;;;;;24.10;46.90;99345.85;2092472;85;20972;-65
2021/07/22 13:30:02;;;;;;;16.50;5.23;;;;;;;24.24;46.88;99344.34;2092532;85;21518;-65
2021/07/22 13:33:02;;;;;;;17.73;5.30;;;;;;;24.35;46.68;99338.63;2092487;85;21529;-65
2021/07/22 13:36:03;;;;;;;18.67;5.70;;;;;;;24.41;46.40;99339.80;2092046;85;20969;-65
2021/07/22 13:39:04;;;;;;;17.65;5.60;;;;;;;24.39;45.67;99341.80;2091969;85;21543;-65
2021/07/22 13:42:04;;;;;;;17.83;5.77;;;;;;;24.36;46.67;99337.60;2092395;85;20999;-65
2021/07/22 13:45:05;;;;;;;19.63;5.77;;;;;;;24.33;45.70;99335.27;2092592;85;21044;-65
2021/07/22 13:48:05;;;;;;;15.67;5.60;;;;;;;24.42;46.52;99337.43;2092518;85;21004;-65
2021/07/22 13:51:06;;;;;;;19.47;5.93;;;;;;;24.55;46.18;99324.83;2092517;85;20980;-65
2021/07/22 13:54:07;;;;;;;19.17;5.70;;;;;;;24.60;45.25;99326.54;2092382;85;21063;-65
2021/07/22 13:57:07;;;;;;;20.30;6.40;;;;;;;24.52;45.10;99322.02;2092362;85;21458;-65
2021/07/22 14:00:08;;;;;;;17.67;5.73;;;;;;;24.72;46.47;99325.17;2092314;85;21107;-65